Time;durP1;ratioP1;P1;durP2;ratioP2;P2;SDS_P1;SDS_P2;PMS_P1;PMS_P2;Temp;Humidity;BMP_temperature;BMP_pressure;BME280_temperature;BME280_humidity;BME280_pressure;Samples;Min_cycle;Max_cycle;Signal;HPM_P1;HPM_P2
2022/09/10 00:02:05;;;;;;;2.62;0.70;;;15.40;99.90;;;;;;7364121;32;20095;-60
2022/09/10 00:06:08;;;;;;;6.53;1.00;;;15.40;99.90;;;;;;7359182;32;20231;-60
2022/09/10 00:10:10;;;;;;;2.15;0.70;;;15.40;99.90;;;;;;7359074;32;20167;-62
2022/09/10 00:14:16;;;;;;;6.40;0.90;;;15.30;99.90;;;;;;7361543;32;20198;-59
2022/09/10 00:18:21;;;;;;;6.80;1.08;;;15.30;99.90;;;;;;7366252;32;20103;-59
2022/09/10 00:22:22;;;;;;;3.72;1.10;;;15.30;99.90;;;;;;7365140;32;20132;-59
2022/09/10 00:26:27;;;;;;;3.70;0.93;;;15.30;99.90;;;;;;7360595;32;20103;-59
2022/09/10 00:30:29;;;;;;;2.55;0.93;;;15.40;99.90;;;;;;7373470;32;20129;-59
2022/09/10 00:34:31;;;;;;;2.55;0.73;;;15.50;99.90;;;;;;7365741;32;20194;-59
2022/09/10 00:38:33;;;;;;;2.50;0.93;;;15.50;99.90;;;;;;7369489;32;20125;-60
2022/09/10 00:42:35;;;;;;;2.03;0.65;;;15.50;99.90;;;;;;7368360;32;20510;-59
2022/09/10 00:46:43;;;;;;;3.65;0.80;;;15.50;99.90;;;;;;7360817;32;20123;-59
2022/09/10 00:50:47;;;;;;;3.42;0.80;;;15.60;99.90;;;;;;7367458;32;20145;-59
2022/09/10 00:54:49;;;;;;;3.40;0.75;;;15.60;99.90;;;;;;7359908;32;20622;-60
2022/09/10 00:58:51;;;;;;;1.77;0.57;;;15.40;99.90;;;;;;7369563;32;20399;-59
2022/09/10 01:02:53;;;;;;;4.57;0.60;;;15.50;99.90;;;;;;7364386;32;20111;-59
2022/09/10 01:06:55;;;;;;;3.37;0.88;;;15.40;99.90;;;;;;7366664;32;20095;-60
2022/09/10 01:11:03;;;;;;;3.70;0.75;;;15.30;99.90;;;;;;7367792;32;20099;-59
2022/09/10 01:15:08;;;;;;;2.20;0.80;;;15.30;99.90;;;;;;7365832;32;20125;-59
2022/09/10 01:19:18;;;;;;;2.55;1.17;;;15.40;99.90;;;;;;7364804;32;20447;-59
2022/09/10 01:23:49;;;;;;;2.53;0.70;;;15.40;99.90;;;;;;7363022;32;20122;-59
2022/09/10 01:27:53;;;;;;;0.98;0.45;;;15.40;99.90;;;;;;7371070;32;20194;-59
2022/09/10 01:32:14;;;;;;;3.30;0.80;;;15.50;99.90;;;;;;7365208;32;20129;-59
2022/09/10 01:36:35;;;;;;;2.53;1.02;;;15.50;99.90;;;;;;7369959;32;20218;-59
2022/09/10 01:40:37;;;;;;;2.45;0.70;;;15.40;99.90;;;;;;7371635;32;20553;-59
2022/09/10 01:44:47;;;;;;;3.85;0.62;;;15.50;99.90;;;;;;7368375;32;20118;-59
2022/09/10 01:49:08;;;;;;;3.50;0.70;;;15.50;99.90;;;;;;7368084;32;20524;-59
2022/09/10 01:53:22;;;;;;;2.97;0.85;;;15.40;99.90;;;;;;7365595;32;20205;-59
2022/09/10 01:57:53;;;;;;;3.92;0.88;;;15.40;99.90;;;;;;7366415;32;20096;-58
2022/09/10 02:02:05;;;;;;;2.58;0.65;;;15.40;99.90;;;;;;7367713;32;20235;-58
2022/09/10 02:06:11;;;;;;;4.90;0.75;;;15.40;99.90;;;;;;7362337;32;20866;-59
2022/09/10 02:10:12;;;;;;;3.50;1.20;;;15.30;99.90;;;;;;7363509;32;20554;-58
2022/09/10 02:14:15;;;;;;;4.62;0.88;;;15.50;99.90;;;;;;7364425;32;20206;-58
2022/09/10 02:18:19;;;;;;;3.95;0.98;;;15.40;99.90;;;;;;7365886;32;20115;-58
2022/09/10 02:22:22;;;;;;;4.43;0.95;;;15.40;99.90;;;;;;7365066;32;20232;-59
2022/09/10 02:26:27;;;;;;;4.18;1.30;;;15.30;99.90;;;;;;7358050;32;20185;-58
2022/09/10 02:30:29;;;;;;;5.53;1.17;;;15.30;99.90;;;;;;7357689;32;20160;-59
2022/09/10 02:34:30;;;;;;;2.47;1.00;;;15.40;99.90;;;;;;7358935;32;20095;-59
2022/09/10 02:38:32;;;;;;;4.65;0.88;;;15.30;99.90;;;;;;7364895;32;21140;-59
2022/09/10 02:42:34;;;;;;;2.28;1.00;;;15.30;99.90;;;;;;7357408;32;20180;-58
2022/09/10 02:46:37;;;;;;;3.45;1.20;;;15.40;99.90;;;;;;7364454;32;20551;-59
2022/09/10 02:50:38;;;;;;;4.25;1.00;;;15.50;99.90;;;;;;7364911;32;20098;-58
2022/09/10 02:54:40;;;;;;;4.03;1.25;;;15.40;99.90;;;;;;7363914;32;20739;-58
2022/09/10 02:58:42;;;;;;;5.25;1.30;;;15.50;99.90;;;;;;7366016;32;20120;-58
2022/09/10 03:02:45;;;;;;;5.57;1.45;;;15.50;99.90;;;;;;7364555;32;20108;-58
2022/09/10 03:06:48;;;;;;;5.28;1.40;;;15.50;99.90;;;;;;7367831;32;20133;-58
2022/09/10 03:10:50;;;;;;;4.10;1.25;;;15.50;99.90;;;;;;7363247;32;20153;-60
2022/09/10 03:14:52;;;;;;;6.93;1.58;;;15.50;99.90;;;;;;7367268;32;20269;-58
2022/09/10 03:18:53;;;;;;;5.55;1.30;;;15.50;99.90;;;;;;7358810;32;20126;-59
2022/09/10 03:22:56;;;;;;;6.05;1.40;;;15.50;99.90;;;;;;7379385;32;20182;-58
2022/09/10 03:26:57;;;;;;;7.80;1.52;;;15.50;99.90;;;;;;7365083;32;20225;-59
2022/09/10 03:31:00;;;;;;;4.80;1.40;;;15.40;99.90;;;;;;7357539;32;20538;-58
2022/09/10 03:35:01;;;;;;;7.25;1.37;;;15.40;99.90;;;;;;7365708;32;20212;-58
2022/09/10 03:39:04;;;;;;;6.68;1.50;;;15.40;99.90;;;;;;7366283;32;20122;-58
2022/09/10 03:43:05;;;;;;;8.45;1.77;;;15.40;99.90;;;;;;7370956;32;20090;-59
2022/09/10 03:47:07;;;;;;;4.25;1.37;;;15.50;99.90;;;;;;7364456;32;20155;-58
2022/09/10 03:51:09;;;;;;;5.90;1.58;;;15.50;99.90;;;;;;7358841;32;20513;-58
2022/09/10 03:55:12;;;;;;;4.25;1.60;;;15.50;99.90;;;;;;7363813;32;20186;-58
2022/09/10 03:59:13;;;;;;;5.20;1.60;;;15.40;99.90;;;;;;7368053;32;20226;-58
2022/09/10 04:03:15;;;;;;;6.35;1.80;;;15.50;99.90;;;;;;7365168;32;20259;-59
2022/09/10 04:07:17;;;;;;;6.97;1.50;;;15.50;99.90;;;;;;7365255;32;20128;-58
2022/09/10 04:11:19;;;;;;;7.18;1.62;;;15.40;99.90;;;;;;7366016;32;20125;-58
2022/09/10 04:15:22;;;;;;;8.32;1.67;;;15.40;99.90;;;;;;7364453;32;20216;-58
2022/09/10 04:19:26;;;;;;;7.32;1.92;;;15.50;99.90;;;;;;7363422;32;20126;-58
2022/09/10 04:23:28;;;;;;;4.43;1.67;;;15.40;99.90;;;;;;7361833;32;20558;-58
2022/09/10 04:27:30;;;;;;;4.60;1.50;;;15.50;99.90;;;;;;7371870;32;20103;-59
2022/09/10 04:31:31;;;;;;;5.70;1.70;;;15.50;99.90;;;;;;7360950;32;20441;-58
2022/09/10 04:35:33;;;;;;;6.05;1.80;;;15.50;99.90;;;;;;7365761;32;20182;-59
2022/09/10 04:39:35;;;;;;;6.90;1.87;;;15.50;99.90;;;;;;7363761;32;20107;-58
2022/09/10 04:43:37;;;;;;;8.52;2.10;;;15.50;99.90;;;;;;7369292;32;20095;-59
2022/09/10 04:47:39;;;;;;;5.22;1.77;;;15.50;99.90;;;;;;7366419;32;20129;-58
2022/09/10 04:51:40;;;;;;;5.68;1.90;;;15.50;99.90;;;;;;7361350;32;20122;-59
2022/09/10 04:55:44;;;;;;;11.23;2.45;;;15.40;99.90;;;;;;7362180;32;20191;-58
2022/09/10 04:59:46;;;;;;;6.12;1.90;;;15.50;99.90;;;;;;7357303;32;20182;-59
2022/09/10 05:03:48;;;;;;;8.45;2.20;;;15.50;99.90;;;;;;7356763;32;20502;-59
2022/09/10 05:07:50;;;;;;;6.20;2.05;;;15.50;99.90;;;;;;7362933;32;20150;-59
2022/09/10 05:11:51;;;;;;;10.32;1.83;;;15.40;99.90;;;;;;7363311;32;20177;-59
2022/09/10 05:15:53;;;;;;;6.80;2.30;;;15.40;99.90;;;;;;7361670;32;20463;-59
2022/09/10 05:19:54;;;;;;;5.55;2.12;;;15.30;99.90;;;;;;7345324;32;20209;-59
2022/09/10 05:23:56;;;;;;;5.60;2.50;;;15.30;99.90;;;;;;7348306;32;20194;-59
2022/09/10 05:27:59;;;;;;;8.00;2.80;;;15.20;99.90;;;;;;7347945;32;20197;-60
2022/09/10 05:32:01;;;;;;;9.25;3.10;;;15.20;99.90;;;;;;7362464;32;20182;-59
2022/09/10 05:36:04;;;;;;;7.15;3.00;;;15.10;99.90;;;;;;7346946;32;20197;-59
2022/09/10 05:40:07;;;;;;;7.05;2.87;;;15.10;99.90;;;;;;7347597;32;20191;-59
2022/09/10 05:44:09;;;;;;;10.20;3.20;;;15.00;99.90;;;;;;7360564;32;20225;-59
2022/09/10 05:48:12;;;;;;;11.12;3.28;;;15.00;99.90;;;;;;7360770;32;20522;-60
2022/09/10 05:52:14;;;;;;;10.15;3.62;;;15.00;99.90;;;;;;7366486;32;20186;-60
2022/09/10 05:56:16;;;;;;;7.37;3.22;;;15.00;99.90;;;;;;7364427;32;20099;-61
2022/09/10 06:00:18;;;;;;;8.60;3.40;;;15.00;99.90;;;;;;7363900;32;20111;-61
2022/09/10 06:04:20;;;;;;;9.30;3.25;;;15.00;99.90;;;;;;7357800;32;20258;-63
2022/09/10 06:08:21;;;;;;;8.02;3.58;;;15.00;99.90;;;;;;7353712;32;20651;-65
2022/09/10 06:12:23;;;;;;;9.02;4.00;;;15.00;99.90;;;;;;7361452;32;20257;-71
2022/09/10 06:16:25;;;;;;;8.65;4.05;;;15.00;99.90;;;;;;7365676;32;20527;-66
2022/09/10 06:20:27;;;;;;;11.48;4.20;;;15.00;99.90;;;;;;7373948;32;20133;-66
2022/09/10 06:24:28;;;;;;;8.25;4.65;;;15.00;99.90;;;;;;7376347;32;20558;-67
2022/09/10 06:28:31;;;;;;;9.98;4.57;;;15.00;99.90;;;;;;7366497;32;20122;-63
2022/09/10 06:32:33;;;;;;;10.18;4.75;;;15.00;99.90;;;;;;7362107;32;20909;-63
2022/09/10 06:36:35;;;;;;;9.57;4.47;;;15.00;99.90;;;;;;7367211;32;20777;-63
2022/09/10 06:40:36;;;;;;;10.25;3.78;;;15.10;99.90;;;;;;7360830;32;20098;-63
2022/09/10 06:44:38;;;;;;;8.32;4.10;;;15.10;99.90;;;;;;7363967;32;20617;-63
2022/09/10 06:48:41;;;;;;;11.00;4.30;;;15.10;99.90;;;;;;7369516;32;20125;-64
2022/09/10 06:52:48;;;;;;;9.73;4.20;;;15.20;99.90;;;;;;7367532;32;20527;-64
2022/09/10 06:56:50;;;;;;;8.57;3.95;;;15.20;99.90;;;;;;7363629;32;20327;-62
2022/09/10 07:00:51;;;;;;;9.30;4.12;;;15.10;99.90;;;;;;7363122;32;20262;-66
2022/09/10 07:04:53;;;;;;;10.05;4.65;;;15.20;99.90;;;;;;7351870;32;20189;-62
2022/09/10 07:08:56;;;;;;;8.52;3.55;;;15.20;99.90;;;;;;7362346;32;20126;-66
2022/09/10 07:12:59;;;;;;;8.75;4.00;;;15.20;99.90;;;;;;7355614;32;20482;-66
2022/09/10 07:17:01;;;;;;;9.95;3.50;;;15.30;99.90;;;;;;7365848;32;20478;-61
2022/09/10 07:21:11;;;;;;;10.68;4.72;;;15.30;99.90;;;;;;7359832;32;22107;-66
2022/09/10 07:25:13;;;;;;;7.10;3.72;;;15.30;99.90;;;;;;7367970;32;20194;-63
2022/09/10 07:29:17;;;;;;;7.62;3.80;;;15.40;99.90;;;;;;7367668;32;20237;-63
2022/09/10 07:33:18;;;;;;;5.80;3.60;;;15.30;99.90;;;;;;7367275;32;20553;-65
2022/09/10 07:37:21;;;;;;;7.28;4.05;;;15.40;99.90;;;;;;7364101;32;20540;-62
2022/09/10 07:41:26;;;;;;;8.07;3.83;;;15.40;99.90;;;;;;7363886;32;20190;-68
2022/09/10 07:45:29;;;;;;;7.85;3.58;;;15.40;99.90;;;;;;7362457;32;20088;-61
2022/09/10 07:49:31;;;;;;;9.98;4.20;;;15.40;99.90;;;;;;7359588;32;20301;-63
2022/09/10 07:53:33;;;;;;;9.68;4.40;;;15.50;99.90;;;;;;7364270;32;20212;-61
2022/09/10 07:57:39;;;;;;;8.82;3.72;;;15.40;99.90;;;;;;7363021;32;20107;-63
2022/09/10 08:01:41;;;;;;;8.40;4.45;;;15.50;99.90;;;;;;7365545;32;20099;-64
2022/09/10 08:05:45;;;;;;;8.75;4.37;;;15.60;99.90;;;;;;7362802;32;20202;-59
2022/09/10 08:09:55;;;;;;;6.35;3.90;;;15.60;99.90;;;;;;7363370;32;20148;-60
2022/09/10 08:13:57;;;;;;;14.25;4.45;;;15.70;99.90;;;;;;7365305;32;20786;-63
2022/09/10 08:17:59;;;;;;;10.55;4.20;;;15.70;99.90;;;;;;7369968;32;20099;-58
2022/09/10 08:22:02;;;;;;;6.68;4.15;;;15.80;99.90;;;;;;7358590;32;20095;-59
2022/09/10 08:26:07;;;;;;;8.77;4.43;;;15.90;99.90;;;;;;7362223;32;20099;-59
2022/09/10 08:30:09;;;;;;;9.27;4.60;;;16.10;99.90;;;;;;7358450;32;20107;-58
2022/09/10 08:34:12;;;;;;;7.53;4.35;;;16.20;99.90;;;;;;7356355;32;20573;-65
2022/09/10 08:38:14;;;;;;;9.52;4.10;;;16.30;99.90;;;;;;7366539;32;20212;-63
2022/09/10 08:42:26;;;;;;;9.60;4.30;;;16.40;99.90;;;;;;7359757;32;20218;-63
2022/09/10 08:46:34;;;;;;;7.45;3.95;;;16.40;99.90;;;;;;7357589;32;20671;-55
2022/09/10 08:50:47;;;;;;;8.68;4.22;;;16.40;99.90;;;;;;7363185;32;20120;-57
2022/09/10 08:54:54;;;;;;;6.57;3.87;;;16.40;99.90;;;;;;7368523;32;20099;-58
2022/09/10 08:59:04;;;;;;;7.78;4.20;;;16.40;99.90;;;;;;7366628;32;20099;-59
2022/09/10 09:03:24;;;;;;;9.60;4.43;;;16.60;99.90;;;;;;7363822;32;21839;-63
2022/09/10 09:07:36;;;;;;;8.93;4.07;;;16.50;99.90;;;;;;7367597;32;20127;-63
2022/09/10 09:12:06;;;;;;;11.73;4.80;;;16.40;99.90;;;;;;7363198;32;20123;-63
2022/09/10 09:16:36;;;;;;;7.25;4.10;;;16.40;99.90;;;;;;7359935;32;20186;-62
2022/09/10 09:20:48;;;;;;;10.38;4.68;;;16.30;99.90;;;;;;7375635;32;20104;-62
2022/09/10 09:25:02;;;;;;;10.27;5.45;;;16.20;99.90;;;;;;7365599;32;20133;-68
2022/09/10 09:29:23;;;;;;;7.60;4.80;;;16.10;99.90;;;;;;7360073;32;20194;-64
2022/09/10 09:33:29;;;;;;;13.15;6.35;;;15.90;99.90;;;;;;7349987;32;20186;-65
2022/09/10 09:37:33;;;;;;;13.43;6.80;;;15.80;99.90;;;;;;7364439;32;20122;-65
2022/09/10 09:41:59;;;;;;;11.32;7.22;;;15.80;99.90;;;;;;7359672;32;20545;-63
2022/09/10 09:46:01;;;;;;;9.32;6.72;;;15.60;99.90;;;;;;7351141;32;20200;-65
2022/09/10 09:50:03;;;;;;;10.68;8.35;;;15.60;99.90;;;;;;7357406;32;20587;-64
2022/09/10 09:54:14;;;;;;;9.48;7.97;;;15.60;99.90;;;;;;7360174;32;20115;-64
2022/09/10 09:58:38;;;;;;;12.60;9.15;;;15.60;99.90;;;;;;7354318;32;20614;-66
2022/09/10 10:02:40;;;;;;;13.10;9.30;;;15.50;99.90;;;;;;7358774;32;20186;-66
2022/09/10 10:06:52;;;;;;;16.30;10.43;;;15.60;99.90;;;;;;7353122;32;20142;-73
2022/09/10 10:10:53;;;;;;;17.02;10.82;;;15.60;99.90;;;;;;7364855;32;20248;-60
2022/09/10 10:14:55;;;;;;;14.52;10.68;;;15.70;99.90;;;;;;7369148;32;20163;-62
2022/09/10 10:18:57;;;;;;;14.40;10.85;;;15.60;99.90;;;;;;7365816;32;20126;-70
2022/09/10 10:23:03;;;;;;;18.20;11.52;;;15.60;99.90;;;;;;7365733;32;20105;-62
2022/09/10 10:27:12;;;;;;;15.50;10.93;;;15.60;99.90;;;;;;7361844;32;20597;-63
2022/09/10 10:31:14;;;;;;;18.17;11.38;;;15.60;99.90;;;;;;7360328;32;20232;-63
2022/09/10 10:35:42;;;;;;;15.82;10.93;;;15.50;99.90;;;;;;7365967;32;20594;-63
2022/09/10 10:40:02;;;;;;;13.52;10.38;;;15.50;99.90;;;;;;7357298;32;20198;-62
2022/09/10 10:44:46;;;;;;;18.75;11.40;;;15.50;99.90;;;;;;7367764;32;20202;-62
2022/09/10 10:49:31;;;;;;;15.85;11.82;;;15.50;99.90;;;;;;7358983;32;20609;-63
2022/09/10 10:54:03;;;;;;;18.12;11.57;;;15.60;99.90;;;;;;7368918;32;20111;-62
2022/09/10 10:58:27;;;;;;;15.15;12.45;;;15.60;99.90;;;;;;7365698;32;20199;-64
2022/09/10 11:02:54;;;;;;;17.25;12.77;;;15.60;99.90;;;;;;7365958;32;20291;-63
2022/09/10 11:07:04;;;;;;;22.87;12.32;;;15.70;99.90;;;;;;7363684;32;20141;-62
2022/09/10 11:11:17;;;;;;;15.70;12.37;;;15.70;99.90;;;;;;7364292;32;20119;-64
2022/09/10 11:15:51;;;;;;;17.73;13.88;;;15.80;99.90;;;;;;7358426;32;20133;-68
2022/09/10 11:20:08;;;;;;;19.42;13.40;;;15.90;99.90;;;;;;7364965;32;20153;-70
2022/09/10 11:24:50;;;;;;;16.93;11.13;;;16.20;99.90;;;;;;7367018;32;20515;-63
2022/09/10 11:29:07;;;;;;;16.30;10.82;;;16.30;99.90;;;;;;7358487;32;20781;-70
2022/09/10 11:33:14;;;;;;;;;;;16.10;99.90;;;;;;7362424;32;20133;-62
2022/09/10 11:37:57;;;;;;;15.73;12.77;;;16.10;99.90;;;;;;7364271;32;20575;-63
2022/09/10 11:42:04;;;;;;;17.15;13.52;;;15.90;99.90;;;;;;7338363;32;20502;-64
2022/09/10 11:46:13;;;;;;;19.10;15.45;;;16.10;99.90;;;;;;7363638;32;20787;-63
2022/09/10 11:50:39;;;;;;;22.23;16.15;;;16.20;99.90;;;;;;7366910;32;20111;-67
2022/09/10 11:54:45;;;;;;;23.98;15.55;;;16.40;99.90;;;;;;7361238;32;20103;-67
2022/09/10 11:59:05;;;;;;;21.00;15.35;;;16.50;99.90;;;;;;7363487;32;20104;-64
2022/09/10 12:03:45;;;;;;;17.40;15.38;;;16.50;99.90;;;;;;7365786;32;20152;-61
2022/09/10 12:08:19;;;;;;;24.05;16.70;;;16.50;99.90;;;;;;7366810;32;20117;-65
2022/09/10 12:12:44;;;;;;;20.50;16.70;;;16.50;99.90;;;;;;7368080;32;21013;-65
2022/09/10 12:16:59;;;;;;;18.80;16.77;;;16.60;99.90;;;;;;7364654;32;20122;-68
2022/09/10 12:21:23;;;;;;;20.23;16.02;;;16.70;99.90;;;;;;7365300;32;20122;-65
2022/09/10 12:25:30;;;;;;;18.98;16.73;;;16.80;99.90;;;;;;7363734;32;20134;-66
2022/09/10 12:29:38;;;;;;;17.62;15.10;;;16.80;99.90;;;;;;7364443;32;20103;-72
2022/09/10 12:33:43;;;;;;;20.30;16.12;;;16.90;99.90;;;;;;7363112;32;20463;-65
2022/09/10 12:37:44;;;;;;;21.27;14.75;;;17.10;99.90;;;;;;7369579;32;20213;-64
2022/09/10 12:41:46;;;;;;;19.35;15.82;;;17.10;99.90;;;;;;7361523;32;20118;-65
2022/09/10 12:46:17;;;;;;;17.12;13.73;;;17.30;99.90;;;;;;7363381;32;20526;-65
2022/09/10 12:50:30;;;;;;;15.05;13.45;;;17.20;99.90;;;;;;7365072;32;20134;-64
2022/09/10 12:54:54;;;;;;;17.00;13.70;;;17.20;99.90;;;;;;7365444;32;20217;-70
2022/09/10 12:59:24;;;;;;;14.35;12.90;;;17.30;99.90;;;;;;7362314;32;20107;-70
2022/09/10 13:03:28;;;;;;;15.93;11.00;;;17.60;99.90;;;;;;7370288;32;20173;-70
2022/09/10 13:07:40;;;;;;;16.25;11.23;;;17.60;99.90;;;;;;7364895;32;20444;-64
2022/09/10 13:11:48;;;;;;;12.60;11.02;;;17.60;99.90;;;;;;7364241;32;20104;-64
2022/09/10 13:15:52;;;;;;;15.00;10.93;;;17.60;99.90;;;;;;7360052;32;20137;-69
2022/09/10 13:19:54;;;;;;;17.90;11.93;;;17.50;99.90;;;;;;7362198;32;20103;-62
2022/09/10 13:23:56;;;;;;;13.43;11.00;;;17.50;99.90;;;;;;7372224;32;20203;-63
2022/09/10 13:27:58;;;;;;;12.52;11.02;;;17.40;99.90;;;;;;7372572;32;20165;-64
2022/09/10 13:32:19;;;;;;;25.05;12.13;;;17.60;99.90;;;;;;7370107;32;20186;-63
2022/09/10 13:36:30;;;;;;;15.38;10.63;;;17.80;99.90;;;;;;7369322;32;20201;-63
2022/09/10 13:40:50;;;;;;;14.87;10.05;;;17.90;99.90;;;;;;7360550;32;20478;-70
2022/09/10 13:45:21;;;;;;;12.37;10.60;;;18.00;99.90;;;;;;7355373;32;20168;-64
2022/09/10 13:49:50;;;;;;;11.00;9.80;;;18.00;99.90;;;;;;7362696;32;20104;-66
2022/09/10 13:53:52;;;;;;;14.00;11.05;;;18.00;99.90;;;;;;7352809;32;20519;-59
2022/09/10 13:57:59;;;;;;;13.70;12.18;;;17.90;99.90;;;;;;7356143;32;20170;-58
2022/09/10 14:02:01;;;;;;;12.50;11.10;;;17.70;99.90;;;;;;7360427;32;20095;-64
2022/09/10 14:06:17;;;;;;;11.65;10.45;;;17.70;99.90;;;;;;7367510;32;20213;-60
2022/09/10 14:10:19;;;;;;;12.30;11.10;;;17.50;99.90;;;;;;7364287;32;20099;-60
2022/09/10 14:14:28;;;;;;;13.65;11.55;;;17.50;99.90;;;;;;7364387;32;20100;-65
2022/09/10 14:18:42;;;;;;;15.05;13.32;;;17.40;99.90;;;;;;7365546;32;20503;-58
2022/09/10 14:22:44;;;;;;;16.52;12.25;;;17.40;99.90;;;;;;7360444;32;20530;-59
2022/09/10 14:27:04;;;;;;;16.02;13.07;;;17.40;99.90;;;;;;7368078;32;20107;-68
2022/09/10 14:31:21;;;;;;;14.60;12.63;;;17.40;99.90;;;;;;7364285;32;20104;-60
2022/09/10 14:35:36;;;;;;;;;;;17.30;99.90;;;;;;7369090;32;20103;-60
2022/09/10 14:39:43;;;;;;;15.45;12.43;;;17.40;99.90;;;;;;7365807;32;20702;-61
2022/09/10 14:43:45;;;;;;;15.65;13.95;;;17.40;99.90;;;;;;7372910;32;20218;-64
2022/09/10 14:47:53;;;;;;;14.23;12.45;;;17.40;99.90;;;;;;7370526;32;20264;-61
2022/09/10 14:51:57;;;;;;;16.50;12.15;;;17.50;99.90;;;;;;7361941;32;20265;-63
2022/09/10 14:56:01;;;;;;;18.90;13.15;;;17.50;99.90;;;;;;7365727;32;20507;-63
2022/09/10 15:00:03;;;;;;;18.77;13.05;;;17.50;99.90;;;;;;7360393;32;20099;-62
2022/09/10 15:04:05;;;;;;;17.10;12.02;;;17.40;99.90;;;;;;7364901;32;20234;-66
2022/09/10 15:08:07;;;;;;;18.37;12.50;;;17.40;99.90;;;;;;7363291;32;20233;-63
2022/09/10 15:12:21;;;;;;;13.52;11.23;;;17.50;99.90;;;;;;7364026;32;20640;-65
2022/09/10 15:16:23;;;;;;;16.35;12.75;;;17.40;99.90;;;;;;7357966;32;20122;-66
2022/09/10 15:20:25;;;;;;;13.13;11.77;;;17.40;99.90;;;;;;7361506;32;20198;-67
2022/09/10 15:24:28;;;;;;;17.75;12.50;;;17.40;99.90;;;;;;7363815;32;20204;-66
2022/09/10 15:28:30;;;;;;;16.87;11.52;;;17.40;99.90;;;;;;7363613;32;20139;-64
2022/09/10 15:32:32;;;;;;;17.80;12.13;;;17.40;99.90;;;;;;7362713;32;20741;-64
2022/09/10 15:36:36;;;;;;;13.18;11.05;;;17.50;99.90;;;;;;7370837;32;20198;-72
2022/09/10 15:40:37;;;;;;;15.63;11.43;;;17.40;99.90;;;;;;7369998;32;20129;-66
2022/09/10 15:44:39;;;;;;;13.75;11.18;;;17.30;99.90;;;;;;7374894;32;20129;-66
2022/09/10 15:48:42;;;;;;;13.90;10.70;;;17.30;99.90;;;;;;7368532;32;20131;-66
2022/09/10 15:52:43;;;;;;;11.90;10.18;;;17.30;99.90;;;;;;7360972;32;20178;-64
2022/09/10 15:56:45;;;;;;;13.10;11.20;;;17.30;99.90;;;;;;7364901;32;20225;-65
2022/09/10 16:00:47;;;;;;;13.82;12.23;;;17.30;99.90;;;;;;7366403;32;20099;-65
2022/09/10 16:04:49;;;;;;;13.98;11.55;;;17.20;99.90;;;;;;7366402;32;21867;-71
2022/09/10 16:08:56;;;;;;;14.15;11.65;;;17.20;99.90;;;;;;7366461;32;20550;-65
2022/09/10 16:12:57;;;;;;;14.73;10.43;;;17.20;99.90;;;;;;7356675;32;20107;-63
2022/09/10 16:16:59;;;;;;;11.57;10.38;;;17.10;99.90;;;;;;7365507;32;20488;-63
2022/09/10 16:21:22;;;;;;;8.95;8.00;;;17.00;99.90;;;;;;7361674;32;20170;-63
2022/09/10 16:25:24;;;;;;;8.77;7.95;;;16.90;99.90;;;;;;7357828;32;20103;-66
2022/09/10 16:29:27;;;;;;;10.27;9.27;;;16.90;99.90;;;;;;7360483;32;20220;-66
2022/09/10 16:33:30;;;;;;;11.23;10.20;;;16.70;99.90;;;;;;7357938;32;20168;-67
2022/09/10 16:37:32;;;;;;;13.55;10.88;;;16.70;99.90;;;;;;7360992;32;20103;-55
2022/09/10 16:41:33;;;;;;;12.75;11.27;;;16.80;99.90;;;;;;7368280;32;20181;-62
2022/09/10 16:45:35;;;;;;;13.07;11.77;;;16.70;99.90;;;;;;7367421;32;20258;-63
2022/09/10 16:49:37;;;;;;;11.60;10.45;;;16.80;99.90;;;;;;7361366;32;20126;-62
2022/09/10 16:53:41;;;;;;;16.70;12.48;;;16.70;99.90;;;;;;7364225;32;20114;-61
2022/09/10 16:57:42;;;;;;;13.98;12.52;;;16.80;99.90;;;;;;7372347;32;20177;-63
2022/09/10 17:01:47;;;;;;;16.92;13.55;;;16.80;99.90;;;;;;7364127;32;20559;-62
2022/09/10 17:05:50;;;;;;;15.70;13.95;;;16.80;99.90;;;;;;7364056;32;20103;-61
2022/09/10 17:09:52;;;;;;;16.42;13.88;;;16.80;99.90;;;;;;7357084;32;20126;-62
2022/09/10 17:14:02;;;;;;;16.75;15.05;;;16.80;99.90;;;;;;7363539;32;20117;-63
2022/09/10 17:18:08;;;;;;;17.02;15.18;;;16.90;99.90;;;;;;7355840;32;20738;-63
2022/09/10 17:22:10;;;;;;;17.83;15.00;;;16.90;99.90;;;;;;7360135;32;20126;-65
2022/09/10 17:26:12;;;;;;;17.90;15.38;;;17.00;99.90;;;;;;7368827;32;20218;-62
2022/09/10 17:30:13;;;;;;;17.17;15.13;;;17.00;99.90;;;;;;7364928;32;20112;-63
2022/09/10 17:34:16;;;;;;;16.55;14.80;;;16.90;99.90;;;;;;7366100;32;20194;-64
2022/09/10 17:38:18;;;;;;;16.98;14.77;;;16.90;99.90;;;;;;7373620;32;20107;-63
2022/09/10 17:42:20;;;;;;;16.27;14.48;;;16.90;99.90;;;;;;7370216;32;20550;-64
2022/09/10 17:46:22;;;;;;;15.63;13.43;;;16.80;99.90;;;;;;7364126;32;20235;-62
2022/09/10 17:50:24;;;;;;;15.18;13.25;;;16.80;99.90;;;;;;7369352;32;20190;-62
2022/09/10 17:54:26;;;;;;;14.07;12.68;;;16.80;99.90;;;;;;7368446;32;20127;-62
2022/09/10 17:58:29;;;;;;;15.20;12.60;;;16.70;99.90;;;;;;7367259;32;20157;-62
2022/09/10 18:02:30;;;;;;;13.48;12.15;;;16.60;99.90;;;;;;7366951;32;20103;-63
2022/09/10 18:06:35;;;;;;;12.95;11.75;;;16.60;99.90;;;;;;7370803;32;20094;-62
2022/09/10 18:10:37;;;;;;;12.73;11.43;;;16.60;99.90;;;;;;7360142;32;20099;-58
2022/09/10 18:14:38;;;;;;;16.90;13.62;;;16.50;99.90;;;;;;7372647;32;20099;-59
2022/09/10 18:18:41;;;;;;;14.98;13.30;;;16.50;99.90;;;;;;7372638;32;20107;-62
2022/09/10 18:22:42;;;;;;;15.80;13.38;;;16.40;99.90;;;;;;7372052;32;20103;-59
2022/09/10 18:26:46;;;;;;;15.00;13.55;;;16.30;99.90;;;;;;7365623;32;20103;-60
2022/09/10 18:30:47;;;;;;;14.40;12.90;;;16.30;99.90;;;;;;7365186;32;20112;-60
2022/09/10 18:34:49;;;;;;;14.05;12.65;;;16.30;99.90;;;;;;7360776;32;20114;-59
2022/09/10 18:38:52;;;;;;;15.85;13.77;;;16.20;99.90;;;;;;7364399;32;20107;-59
2022/09/10 18:42:53;;;;;;;15.80;14.25;;;16.20;99.90;;;;;;7362255;32;20133;-60
2022/09/10 18:46:55;;;;;;;14.35;12.85;;;16.10;99.90;;;;;;7360783;32;20698;-60
2022/09/10 18:51:04;;;;;;;19.42;14.73;;;16.10;99.90;;;;;;7366277;32;20103;-60
2022/09/10 18:55:06;;;;;;;17.50;15.35;;;16.00;99.90;;;;;;7359573;32;20174;-60
2022/09/10 18:59:13;;;;;;;19.45;14.80;;;16.00;99.90;;;;;;7370946;32;20103;-60
2022/09/10 19:03:15;;;;;;;17.37;14.80;;;15.90;99.90;;;;;;7363882;32;20579;-60
2022/09/10 19:07:17;;;;;;;14.70;13.30;;;15.90;99.90;;;;;;7360968;32;20127;-59
2022/09/10 19:11:23;;;;;;;18.95;15.98;;;15.90;99.90;;;;;;7360390;32;20103;-60
2022/09/10 19:15:26;;;;;;;18.10;15.95;;;15.80;99.90;;;;;;7360739;32;20266;-59
2022/09/10 19:19:34;;;;;;;18.23;16.05;;;15.80;99.90;;;;;;7358427;32;20099;-59
2022/09/10 19:23:35;;;;;;;;;;;15.70;99.90;;;;;;7363070;32;20206;-59
2022/09/10 19:27:37;;;;;;;21.80;16.30;;;15.70;99.90;;;;;;7362768;32;20013;-60
2022/09/10 19:31:39;;;;;;;19.30;16.98;;;15.70;99.90;;;;;;7364605;32;20095;-59
2022/09/10 19:35:43;;;;;;;20.58;18.37;;;15.70;99.90;;;;;;7359017;32;20121;-59
2022/09/10 19:39:44;;;;;;;20.25;17.23;;;15.70;99.90;;;;;;7363571;32;20467;-59
2022/09/10 19:43:48;;;;;;;22.00;19.27;;;15.60;99.90;;;;;;7367286;32;20599;-60
2022/09/10 19:47:50;;;;;;;22.30;18.40;;;15.60;99.90;;;;;;7364398;32;20205;-58
2022/09/10 19:51:52;;;;;;;22.52;19.73;;;15.60;99.90;;;;;;7362079;32;20099;-58
2022/09/10 19:55:54;;;;;;;24.02;21.60;;;15.60;99.90;;;;;;7365137;32;20102;-59
2022/09/10 19:59:56;;;;;;;23.15;20.75;;;15.60;99.90;;;;;;7363836;32;20220;-59
2022/09/10 20:04:03;;;;;;;25.90;19.15;;;15.60;99.90;;;;;;7364674;32;20114;-59
2022/09/10 20:08:05;;;;;;;20.50;18.00;;;15.60;99.90;;;;;;7360280;32;20614;-58
2022/09/10 20:12:08;;;;;;;27.55;24.45;;;15.50;99.90;;;;;;7361317;32;20127;-59
2022/09/10 20:16:11;;;;;;;27.00;19.30;;;15.50;99.90;;;;;;7357628;32;20129;-59
2022/09/10 20:20:13;;;;;;;20.92;18.23;;;15.40;99.90;;;;;;7364656;32;20577;-59
2022/09/10 20:24:15;;;;;;;20.85;18.48;;;15.40;99.90;;;;;;7360206;32;20675;-60
2022/09/10 20:28:16;;;;;;;21.90;19.35;;;15.40;99.90;;;;;;7360580;32;20133;-60
2022/09/10 20:32:18;;;;;;;22.55;18.35;;;15.40;99.90;;;;;;7360962;32;20790;-60
2022/09/10 20:36:21;;;;;;;25.10;18.40;;;15.30;99.90;;;;;;7359888;32;20471;-61
2022/09/10 20:40:23;;;;;;;20.98;18.20;;;15.30;99.90;;;;;;7364082;32;20095;-60
2022/09/10 20:44:25;;;;;;;20.92;17.15;;;15.30;99.90;;;;;;7359845;32;20104;-60
2022/09/10 20:48:27;;;;;;;26.95;17.62;;;15.20;99.90;;;;;;7361920;32;20141;-60
2022/09/10 20:52:28;;;;;;;17.95;15.65;;;15.20;99.90;;;;;;7364112;32;20107;-60
2022/09/10 20:56:30;;;;;;;19.40;16.80;;;15.20;99.90;;;;;;7369689;32;20613;-60
2022/09/10 21:00:32;;;;;;;17.70;15.35;;;15.20;99.90;;;;;;7367965;32;20110;-59
2022/09/10 21:04:34;;;;;;;20.40;15.38;;;15.20;99.90;;;;;;7365645;32;20206;-59